createdAt,value
2018-02-16T00:02:18.765Z,82.57
2018-02-16T00:04:47.098Z,82.61
2018-02-16T00:07:15.366Z,82.67
2018-02-16T00:09:43.704Z,82.57
2018-02-16T00:12:12.005Z,82.54
2018-02-16T00:14:40.296Z,82.71
2018-02-16T00:17:08.580Z,82.50
2018-02-16T00:19:36.901Z,82.23
2018-02-16T00:22:05.446Z,82.42
2018-02-16T00:24:33.711Z,82.63
2018-02-16T00:27:02.151Z,82.92
2018-02-16T00:29:30.386Z,83.15
2018-02-16T00:31:58.694Z,82.74
2018-02-16T00:34:26.979Z,82.39
2018-02-16T00:36:55.313Z,81.98
2018-02-16T00:39:23.581Z,81.94
2018-02-16T00:41:51.900Z,81.96
2018-02-16T00:44:20.178Z,82.29
2018-02-16T00:46:48.515Z,82.20
2018-02-16T00:49:16.788Z,82.29
2018-02-16T00:51:45.108Z,81.82
2018-02-16T00:54:13.410Z,81.73
2018-02-16T00:56:41.679Z,81.79
2018-02-16T00:59:09.968Z,81.70
2018-02-16T01:01:38.241Z,82.07
2018-02-16T01:04:06.524Z,82.30
2018-02-16T01:06:34.823Z,82.69
2018-02-16T01:09:03.120Z,82.81
2018-02-16T01:11:31.418Z,82.70
2018-02-16T01:13:59.706Z,82.74
2018-02-16T01:16:28.000Z,82.85
2018-02-16T01:18:56.279Z,83.08
2018-02-16T01:21:24.603Z,83.05
2018-02-16T01:23:52.879Z,83.11
2018-02-16T01:26:21.171Z,82.85
2018-02-16T01:28:49.514Z,82.79
2018-02-16T01:31:17.805Z,82.61
2018-02-16T01:33:46.136Z,82.03
2018-02-16T01:36:14.416Z,82.22
2018-02-16T01:38:42.707Z,82.33
2018-02-16T01:41:11.011Z,83.34
2018-02-16T01:43:39.289Z,83.35
2018-02-16T01:46:07.612Z,83.87
2018-02-16T01:48:35.930Z,84.36
2018-02-16T01:51:04.243Z,84.89
2018-02-16T01:53:32.548Z,85.00
2018-02-16T01:56:00.825Z,84.71
2018-02-16T01:58:29.152Z,84.40
2018-02-16T02:00:57.460Z,83.93
2018-02-16T02:03:25.782Z,82.64
2018-02-16T02:05:54.065Z,82.36
2018-02-16T02:08:22.319Z,82.24
2018-02-16T02:10:50.616Z,81.24
2018-02-16T02:13:18.890Z,81.00
2018-02-16T02:15:47.187Z,81.76
2018-02-16T02:18:15.469Z,82.06
2018-02-16T02:20:43.759Z,82.37
2018-02-16T02:23:12.037Z,82.70
2018-02-16T02:25:40.334Z,82.57
2018-02-16T02:28:08.628Z,82.36
2018-02-16T02:30:36.931Z,82.45
2018-02-16T02:33:05.264Z,82.55
2018-02-16T02:35:33.547Z,82.42
2018-02-16T02:38:01.831Z,82.20
2018-02-16T02:40:30.100Z,82.13
2018-02-16T02:42:58.401Z,82.04
2018-02-16T02:45:26.664Z,81.87
2018-02-16T02:47:54.936Z,81.86
2018-02-16T02:50:23.251Z,82.26
2018-02-16T02:52:51.503Z,81.99
2018-02-16T02:55:19.830Z,81.92
2018-02-16T02:57:48.106Z,82.21
2018-02-16T03:00:16.396Z,82.11
2018-02-16T03:02:44.691Z,81.85
2018-02-16T03:05:13.020Z,81.72
2018-02-16T03:07:41.290Z,82.29
2018-02-16T03:10:09.590Z,82.41
2018-02-16T03:12:37.886Z,82.46
2018-02-16T03:15:06.175Z,82.55
2018-02-16T03:17:34.457Z,82.37
2018-02-16T03:20:02.728Z,82.36
2018-02-16T03:22:31.043Z,81.89
2018-02-16T03:24:59.307Z,81.63
2018-02-16T03:27:27.629Z,81.58
2018-02-16T03:29:55.905Z,81.64
2018-02-16T03:32:24.206Z,81.26
2018-02-16T03:34:52.487Z,81.58
2018-02-16T03:37:20.759Z,81.95
2018-02-16T03:39:49.077Z,82.06
2018-02-16T03:42:17.440Z,82.01
2018-02-16T03:44:45.770Z,81.93
2018-02-16T03:47:14.032Z,82.10
2018-02-16T03:49:42.340Z,82.31
2018-02-16T03:52:10.714Z,81.96
2018-02-16T03:54:39.005Z,82.08
2018-02-16T03:57:07.786Z,82.16
2018-02-16T03:59:36.058Z,82.30
2018-02-16T04:02:04.343Z,82.07
2018-02-16T04:04:32.668Z,82.17
2018-02-16T04:07:00.974Z,81.96
2018-02-16T04:09:29.261Z,81.99
2018-02-16T04:11:57.550Z,82.08
2018-02-16T04:14:25.820Z,81.68
2018-02-16T04:16:54.099Z,80.40
2018-02-16T04:19:22.372Z,80.16
2018-02-16T04:21:50.681Z,80.08
2018-02-16T04:24:18.928Z,80.47
2018-02-16T04:26:47.220Z,80.31
2018-02-16T04:29:15.481Z,80.47
2018-02-16T04:31:43.745Z,80.62
2018-02-16T04:34:12.034Z,80.78
2018-02-16T04:36:40.318Z,80.70
2018-02-16T04:39:08.603Z,81.12
2018-02-16T04:41:36.871Z,81.36
2018-02-16T04:44:05.842Z,81.94
2018-02-16T04:46:34.156Z,82.65
2018-02-16T04:49:02.469Z,83.22
2018-02-16T04:51:30.780Z,82.91
2018-02-16T04:53:59.055Z,82.96
2018-02-16T04:56:27.330Z,82.76
2018-02-16T04:58:55.596Z,82.33
2018-02-16T05:01:23.898Z,82.08
2018-02-16T05:03:52.218Z,81.82
2018-02-16T05:06:20.456Z,81.78
2018-02-16T05:08:48.715Z,81.98
2018-02-16T05:11:17.262Z,81.73
2018-02-16T05:13:45.533Z,81.58
2018-02-16T05:16:13.779Z,81.76
2018-02-16T05:18:42.074Z,81.80
2018-02-16T05:21:10.348Z,81.84
2018-02-16T05:23:38.681Z,81.80
2018-02-16T05:26:06.960Z,81.61
2018-02-16T05:28:35.295Z,81.70
2018-02-16T05:31:03.624Z,81.79
2018-02-16T05:33:31.899Z,82.06
2018-02-16T05:36:00.175Z,81.90
2018-02-16T05:38:28.467Z,81.84
2018-02-16T05:40:56.739Z,81.37
2018-02-16T05:43:25.068Z,81.45
2018-02-16T05:45:53.367Z,81.46
2018-02-16T05:48:21.645Z,81.07
2018-02-16T05:50:49.944Z,81.07
2018-02-16T05:53:18.197Z,80.83
2018-02-16T05:55:46.519Z,80.79
2018-02-16T05:58:14.764Z,81.25
2018-02-16T06:00:43.053Z,81.05
2018-02-16T06:03:11.310Z,80.97
2018-02-16T06:05:39.588Z,80.88
2018-02-16T06:08:07.955Z,81.15
2018-02-16T06:10:36.220Z,81.28
2018-02-16T06:13:04.507Z,81.19
2018-02-16T06:15:32.802Z,81.01
2018-02-16T06:18:01.139Z,80.75
2018-02-16T06:20:29.399Z,80.83
2018-02-16T06:22:57.680Z,80.72
2018-02-16T06:25:25.951Z,80.75
2018-02-16T06:27:54.257Z,80.59
2018-02-16T06:30:22.632Z,80.71
2018-02-16T06:32:50.915Z,80.72
2018-02-16T06:35:19.233Z,80.73
2018-02-16T06:37:47.524Z,81.05
2018-02-16T06:40:15.821Z,80.95
2018-02-16T06:42:44.124Z,80.84
2018-02-16T06:45:12.481Z,80.45
2018-02-16T06:47:40.752Z,80.45
2018-02-16T06:50:09.091Z,80.57
2018-02-16T06:52:37.355Z,80.66
2018-02-16T06:55:06.629Z,80.61
2018-02-16T06:57:34.936Z,80.69
2018-02-16T07:00:04.208Z,80.72
2018-02-16T07:02:32.504Z,80.90
2018-02-16T07:05:00.764Z,81.04
2018-02-16T07:07:29.153Z,80.95
2018-02-16T07:09:57.394Z,80.89
2018-02-16T07:12:25.691Z,81.10
2018-02-16T07:14:54.034Z,80.92
2018-02-16T07:17:22.520Z,80.83
2018-02-16T07:19:50.803Z,80.63
2018-02-16T07:22:19.114Z,80.54
2018-02-16T07:24:47.444Z,80.57
2018-02-16T07:27:15.768Z,80.47
2018-02-16T07:29:44.060Z,80.36
2018-02-16T07:32:12.409Z,80.35
2018-02-16T07:34:40.695Z,80.59
2018-02-16T07:37:08.988Z,80.83
2018-02-16T07:39:37.375Z,81.02
2018-02-16T07:42:05.661Z,80.90
2018-02-16T07:44:33.975Z,80.36
2018-02-16T07:47:02.266Z,80.23
2018-02-16T07:49:30.606Z,80.13
2018-02-16T07:51:58.895Z,80.56
2018-02-16T07:54:27.205Z,80.36
2018-02-16T07:56:55.483Z,80.19
2018-02-16T07:59:23.809Z,80.38
2018-02-16T08:01:52.064Z,80.66
2018-02-16T08:04:20.345Z,80.82
2018-02-16T08:06:48.698Z,80.95
2018-02-16T08:09:16.977Z,81.27
2018-02-16T08:11:45.313Z,81.59
2018-02-16T08:14:13.688Z,81.31
2018-02-16T08:16:41.992Z,80.56
2018-02-16T08:19:10.310Z,80.09
2018-02-16T08:21:38.620Z,79.85
2018-02-16T08:24:06.916Z,79.67
2018-02-16T08:26:35.201Z,79.65
2018-02-16T08:29:03.474Z,79.55
2018-02-16T08:31:31.787Z,79.47
2018-02-16T08:34:00.067Z,79.51
2018-02-16T08:36:29.347Z,79.56
2018-02-16T08:38:57.616Z,79.15
2018-02-16T08:41:26.016Z,79.03
2018-02-16T08:43:54.576Z,79.13
2018-02-16T08:46:22.851Z,79.43
2018-02-16T08:48:51.160Z,79.50
2018-02-16T08:51:19.507Z,79.32
2018-02-16T08:53:47.856Z,79.22
2018-02-16T08:56:16.374Z,78.58
2018-02-16T08:58:44.739Z,78.32
2018-02-16T09:01:13.330Z,78.84
2018-02-16T09:03:41.680Z,78.70
2018-02-16T09:06:09.969Z,78.40
2018-02-16T09:08:38.302Z,77.49
2018-02-16T09:11:06.630Z,76.89
2018-02-16T09:13:34.897Z,76.77
2018-02-16T09:16:03.179Z,77.39
2018-02-16T09:18:31.475Z,77.38
2018-02-16T09:20:59.808Z,77.01
2018-02-16T09:23:28.170Z,76.43
2018-02-16T09:25:56.505Z,76.16
2018-02-16T09:28:24.775Z,75.97
2018-02-16T09:30:53.064Z,76.48
2018-02-16T09:33:21.331Z,76.24
2018-02-16T09:35:55.630Z,76.75
2018-02-16T09:38:23.909Z,76.83
2018-02-16T09:40:52.230Z,77.39
2018-02-16T09:43:20.510Z,76.68
2018-02-16T09:45:48.884Z,76.93
2018-02-16T09:48:19.086Z,75.88
2018-02-16T09:50:47.360Z,75.94
2018-02-16T09:53:15.745Z,75.89
2018-02-16T09:55:44.012Z,75.48
2018-02-16T09:58:12.304Z,75.73
2018-02-16T10:00:41.079Z,75.83
2018-02-16T10:03:09.445Z,75.92
2018-02-16T10:05:37.734Z,75.98
2018-02-16T10:08:06.403Z,74.15
2018-02-16T10:10:34.700Z,74.39
2018-02-16T10:13:03.050Z,74.27
2018-02-16T10:15:31.715Z,74.03
2018-02-16T10:18:00.045Z,74.12
2018-02-16T10:20:28.314Z,73.09
2018-02-16T10:22:56.643Z,73.73
2018-02-16T10:25:25.057Z,73.28
2018-02-16T10:27:53.444Z,71.31
2018-02-16T10:30:22.978Z,72.28
2018-02-16T10:32:51.258Z,71.96
2018-02-16T10:35:19.575Z,71.78
2018-02-16T10:37:48.926Z,71.10
2018-02-16T10:40:17.211Z,69.44
2018-02-16T10:42:45.520Z,70.66
2018-02-16T10:45:14.493Z,69.89
2018-02-16T10:47:42.754Z,70.27
2018-02-16T10:50:12.119Z,70.06
2018-02-16T10:52:40.413Z,70.23
2018-02-16T10:55:08.881Z,69.22
2018-02-16T10:57:37.166Z,68.88
2018-02-16T11:00:05.539Z,69.74
2018-02-16T11:02:39.328Z,68.99
2018-02-16T11:05:12.741Z,68.51
2018-02-16T11:07:47.135Z,68.57
2018-02-16T11:10:15.420Z,68.84
2018-02-16T11:12:43.747Z,68.52
2018-02-16T11:15:12.092Z,68.47
2018-02-16T11:17:40.406Z,67.94
2018-02-16T11:20:09.397Z,69.65
2018-02-16T11:22:37.766Z,70.00
2018-02-16T11:25:06.109Z,68.79
2018-02-16T11:27:34.819Z,66.92
2018-02-16T11:30:03.086Z,67.41
2018-02-16T11:32:31.395Z,65.10
2018-02-16T11:34:59.735Z,64.08
2018-02-16T11:37:28.011Z,63.50
2018-02-16T11:39:56.391Z,63.90
2018-02-16T11:42:25.688Z,63.70
2018-02-16T11:44:54.068Z,61.89
2018-02-16T11:47:22.324Z,62.41
2018-02-16T11:49:50.918Z,62.52
2018-02-16T11:52:19.922Z,61.46
2018-02-16T11:54:48.250Z,62.19
2018-02-16T11:57:16.566Z,60.18
2018-02-16T11:59:44.880Z,60.04
2018-02-16T12:02:13.166Z,58.37
2018-02-16T12:04:41.560Z,57.89
2018-02-16T12:07:09.840Z,57.90
2018-02-16T12:09:38.157Z,57.46
2018-02-16T12:12:06.725Z,58.58
2018-02-16T12:14:36.223Z,58.60
2018-02-16T12:17:04.963Z,58.44
2018-02-16T12:19:33.228Z,56.52
2018-02-16T12:22:01.662Z,57.37
2018-02-16T12:24:29.974Z,56.73
2018-02-16T12:26:58.271Z,56.13
2018-02-16T12:29:26.618Z,55.74
2018-02-16T12:31:54.914Z,52.77
2018-02-16T12:34:23.399Z,53.04
2018-02-16T12:36:51.664Z,51.76
2018-02-16T12:39:20.020Z,52.71
2018-02-16T12:41:48.408Z,52.17
2018-02-16T12:44:16.697Z,52.15
2018-02-16T12:46:44.981Z,50.35
2018-02-16T12:49:13.312Z,50.22
2018-02-16T12:51:41.609Z,50.89
2018-02-16T12:54:10.025Z,49.50
2018-02-16T12:56:38.353Z,49.27
2018-02-16T12:59:07.687Z,48.79
2018-02-16T13:01:35.963Z,49.08
2018-02-16T13:04:04.245Z,49.56
2018-02-16T13:06:32.565Z,48.73
2018-02-16T13:09:00.905Z,48.90
2018-02-16T13:11:29.306Z,48.77
2018-02-16T13:13:57.895Z,50.05
2018-02-16T13:16:26.181Z,50.79
2018-02-16T13:18:54.603Z,50.89
2018-02-16T13:21:22.982Z,51.99
2018-02-16T13:23:51.387Z,52.31
2018-02-16T13:26:19.730Z,51.54
2018-02-16T13:28:48.032Z,52.64
2018-02-16T13:31:17.199Z,52.60
2018-02-16T13:33:45.483Z,51.08
2018-02-16T13:36:13.811Z,49.60
2018-02-16T13:38:42.087Z,50.00
2018-02-16T13:41:10.418Z,49.41
2018-02-16T13:43:38.691Z,49.55
2018-02-16T13:46:07.932Z,49.70
2018-02-16T13:48:36.251Z,48.37
2018-02-16T13:51:05.584Z,45.62
2018-02-16T13:53:33.933Z,41.35
2018-02-16T13:56:02.333Z,43.01
2018-02-16T13:58:30.689Z,41.11
2018-02-16T14:00:58.977Z,40.38
2018-02-16T14:03:27.340Z,40.80
2018-02-16T14:05:55.681Z,40.36
2018-02-16T14:08:24.016Z,40.67
2018-02-16T14:10:52.304Z,40.17
2018-02-16T14:13:20.656Z,38.84
2018-02-16T14:15:48.921Z,40.12
2018-02-16T14:18:17.241Z,41.05
2018-02-16T14:20:45.509Z,40.71
2018-02-16T14:23:13.818Z,39.85
2018-02-16T14:25:42.158Z,39.46
2018-02-16T14:28:10.483Z,40.11
2018-02-16T14:30:38.808Z,39.03
2018-02-16T14:33:07.069Z,39.01
2018-02-16T14:35:35.501Z,39.99
2018-02-16T14:38:03.778Z,39.68
2018-02-16T14:40:32.102Z,41.37
2018-02-16T14:43:00.406Z,40.24
2018-02-16T14:45:28.752Z,41.18
2018-02-16T14:47:57.086Z,40.66
2018-02-16T14:50:25.379Z,41.44
2018-02-16T14:52:53.693Z,42.03
2018-02-16T14:55:21.987Z,42.04
2018-02-16T14:57:51.323Z,45.08
2018-02-16T15:00:20.532Z,46.35
2018-02-16T15:02:48.851Z,46.28
2018-02-16T15:05:17.238Z,46.68
2018-02-16T15:07:45.556Z,46.61
2018-02-16T15:10:13.917Z,46.35
2018-02-16T15:12:42.668Z,47.03
2018-02-16T15:15:10.966Z,46.82
2018-02-16T15:17:39.284Z,47.00
2018-02-16T15:20:07.698Z,47.26
2018-02-16T15:22:35.962Z,46.95
2018-02-16T15:25:04.239Z,46.82
2018-02-16T15:27:32.546Z,46.55
2018-02-16T15:30:00.845Z,46.64
2018-02-16T15:32:29.122Z,45.21
2018-02-16T15:34:57.476Z,45.22
2018-02-16T15:37:25.746Z,46.12
2018-02-16T15:39:54.115Z,46.14
2018-02-16T15:42:22.476Z,45.71
2018-02-16T15:44:51.500Z,45.75
2018-02-16T15:47:19.861Z,45.81
2018-02-16T15:49:48.239Z,45.81
2018-02-16T15:52:16.579Z,45.81
2018-02-16T15:54:44.899Z,45.53
2018-02-16T15:57:13.233Z,43.98
2018-02-16T15:59:41.638Z,44.05
2018-02-16T16:02:10.066Z,43.94
2018-02-16T16:04:38.599Z,44.83
2018-02-16T16:07:06.900Z,45.50
2018-02-16T16:09:35.195Z,45.59
2018-02-16T16:12:04.577Z,46.32
2018-02-16T16:14:32.944Z,46.14
2018-02-16T16:17:01.230Z,45.33
2018-02-16T16:19:29.691Z,46.27
2018-02-16T16:21:57.957Z,46.92
2018-02-16T16:24:26.466Z,47.03
2018-02-16T16:26:54.894Z,47.07
2018-02-16T16:29:24.058Z,46.18
2018-02-16T16:31:52.472Z,44.39
2018-02-16T16:34:20.730Z,44.02
2018-02-16T16:36:49.069Z,43.21
2018-02-16T16:39:17.379Z,43.82
2018-02-16T16:41:45.713Z,44.98
2018-02-16T16:44:13.991Z,45.49
2018-02-16T16:46:42.309Z,44.92
2018-02-16T16:49:10.685Z,44.19
2018-02-16T16:51:39.158Z,44.21
2018-02-16T16:54:07.450Z,45.17
2018-02-16T16:56:35.794Z,45.41
2018-02-16T16:59:05.003Z,45.48
2018-02-16T17:01:33.564Z,45.68
2018-02-16T17:04:01.847Z,46.56
2018-02-16T17:06:30.128Z,48.05
2018-02-16T17:08:59.682Z,47.49
2018-02-16T17:11:28.000Z,47.71
2018-02-16T17:13:56.374Z,49.91
2018-02-16T17:16:24.655Z,51.44
2018-02-16T17:18:52.968Z,52.33
2018-02-16T17:21:21.969Z,53.58
2018-02-16T17:23:50.302Z,54.27
2018-02-16T17:26:18.591Z,54.39
2018-02-16T17:28:46.867Z,54.90
2018-02-16T17:31:15.146Z,55.17
2018-02-16T17:33:43.524Z,55.55
2018-02-16T17:36:11.848Z,55.86
2018-02-16T17:38:40.173Z,55.78
2018-02-16T17:41:08.649Z,55.41
2018-02-16T17:43:36.985Z,56.07
2018-02-16T17:46:05.419Z,56.59
2018-02-16T17:48:33.681Z,57.31
2018-02-16T17:51:02.025Z,57.62
2018-02-16T17:53:30.327Z,58.07
2018-02-16T17:55:59.025Z,58.02
2018-02-16T17:58:27.296Z,58.37
2018-02-16T18:00:55.582Z,58.73
2018-02-16T18:03:23.854Z,59.30
2018-02-16T18:05:52.149Z,59.59
2018-02-16T18:08:20.459Z,59.50
2018-02-16T18:10:48.715Z,59.78
2018-02-16T18:13:17.018Z,59.64
2018-02-16T18:15:45.317Z,60.25
2018-02-16T18:18:13.606Z,60.59
2018-02-16T18:20:41.869Z,60.68
2018-02-16T18:23:10.184Z,60.64
2018-02-16T18:25:38.434Z,61.16
2018-02-16T18:28:06.747Z,61.87
2018-02-16T18:30:35.085Z,61.83
2018-02-16T18:33:03.366Z,62.04
2018-02-16T18:35:31.664Z,62.32
2018-02-16T18:38:00.531Z,62.49
2018-02-16T18:40:29.111Z,63.07
2018-02-16T18:42:57.396Z,63.15
2018-02-16T18:45:25.732Z,62.85
2018-02-16T18:47:53.983Z,63.44
2018-02-16T18:50:22.302Z,63.83
2018-02-16T18:52:50.619Z,63.87
2018-02-16T18:55:18.942Z,64.07
2018-02-16T18:57:47.241Z,64.03
2018-02-16T19:00:15.505Z,64.42
2018-02-16T19:02:44.434Z,64.71
2018-02-16T19:05:13.414Z,64.72
2018-02-16T19:07:42.531Z,64.47
2018-02-16T19:10:10.790Z,64.61
2018-02-16T19:12:39.080Z,64.65
2018-02-16T19:15:07.349Z,63.63
2018-02-16T19:17:35.636Z,63.73
2018-02-16T19:20:03.899Z,63.69
2018-02-16T19:22:32.254Z,63.86
2018-02-16T19:25:00.546Z,64.20
2018-02-16T19:27:28.830Z,64.48
2018-02-16T19:29:57.111Z,64.80
2018-02-16T19:32:25.571Z,65.24
2018-02-16T19:34:53.888Z,65.65
2018-02-16T19:37:22.167Z,65.53
2018-02-16T19:39:50.490Z,65.54
2018-02-16T19:42:19.690Z,65.75
2018-02-16T19:44:47.984Z,65.00
2018-02-16T19:47:16.244Z,65.39
2018-02-16T19:49:45.110Z,65.63
2018-02-16T19:52:13.411Z,65.73
2018-02-16T19:54:41.713Z,65.97
2018-02-16T19:57:10.033Z,66.00
2018-02-16T19:59:38.296Z,66.15
2018-02-16T20:02:06.597Z,66.94
2018-02-16T20:04:34.911Z,67.34
2018-02-16T20:07:03.225Z,67.23
2018-02-16T20:09:31.515Z,67.07
2018-02-16T20:11:59.826Z,66.55
2018-02-16T20:14:28.092Z,66.41
2018-02-16T20:16:56.648Z,66.89
2018-02-16T20:19:25.759Z,67.42
2018-02-16T20:21:54.053Z,67.72
2018-02-16T20:24:22.371Z,68.01
2018-02-16T20:26:50.728Z,68.04
2018-02-16T20:29:19.007Z,67.98
2018-02-16T20:31:47.289Z,67.87
2018-02-16T20:34:15.576Z,68.32
2018-02-16T20:36:44.003Z,68.62
2018-02-16T20:39:12.274Z,68.58
2018-02-16T20:41:40.552Z,69.21
2018-02-16T20:44:08.884Z,69.33
2018-02-16T20:46:37.151Z,69.25
2018-02-16T20:49:05.423Z,69.68
2018-02-16T20:51:33.688Z,70.37
2018-02-16T20:54:01.985Z,70.57
2018-02-16T20:56:30.250Z,70.43
2018-02-16T20:58:58.524Z,70.08
2018-02-16T21:01:26.879Z,69.79
2018-02-16T21:03:55.141Z,69.50
2018-02-16T21:06:23.446Z,68.93
2018-02-16T21:08:51.711Z,68.81
2018-02-16T21:11:20.670Z,69.34
2018-02-16T21:13:48.964Z,69.18
2018-02-16T21:16:17.686Z,69.03
2018-02-16T21:18:46.009Z,68.89
2018-02-16T21:21:14.337Z,69.15
2018-02-16T21:23:42.623Z,68.76
2018-02-16T21:26:10.895Z,69.28
2018-02-16T21:28:39.221Z,69.35
2018-02-16T21:31:07.541Z,69.55
2018-02-16T21:33:35.823Z,69.98
2018-02-16T21:36:04.154Z,70.19
2018-02-16T21:38:32.446Z,70.26
2018-02-16T21:41:00.748Z,70.27
2018-02-16T21:43:29.030Z,70.39
2018-02-16T21:45:57.365Z,70.74
2018-02-16T21:48:25.762Z,70.95
2018-02-16T21:50:54.056Z,71.23
2018-02-16T21:53:22.344Z,70.54
2018-02-16T21:55:50.608Z,70.35
2018-02-16T21:58:18.921Z,71.37
2018-02-16T22:00:47.435Z,70.37
2018-02-16T22:03:15.729Z,70.04
2018-02-16T22:05:44.037Z,70.01
2018-02-16T22:08:12.297Z,70.28
2018-02-16T22:10:40.584Z,70.46
2018-02-16T22:13:08.868Z,71.02
2018-02-16T22:15:37.164Z,71.07
2018-02-16T22:18:05.520Z,71.02
2018-02-16T22:20:33.784Z,70.73
2018-02-16T22:23:02.063Z,71.20
2018-02-16T22:25:30.342Z,71.45
2018-02-16T22:27:58.669Z,70.71
2018-02-16T22:30:26.939Z,70.97
2018-02-16T22:32:55.248Z,71.11
2018-02-16T22:35:23.540Z,71.21
2018-02-16T22:37:51.822Z,71.21
2018-02-16T22:40:20.099Z,71.14
2018-02-16T22:42:48.355Z,71.59
2018-02-16T22:45:16.661Z,71.72
2018-02-16T22:47:44.923Z,72.44
2018-02-16T22:50:13.211Z,72.24
2018-02-16T22:52:41.856Z,72.05
2018-02-16T22:55:10.132Z,72.37
2018-02-16T22:57:38.568Z,72.96
2018-02-16T23:00:06.834Z,72.76
2018-02-16T23:02:35.136Z,72.63
2018-02-16T23:05:03.381Z,72.64
2018-02-16T23:07:31.691Z,72.65
2018-02-16T23:10:00.010Z,72.65
2018-02-16T23:12:28.362Z,72.39
2018-02-16T23:14:56.665Z,72.18
2018-02-16T23:17:24.960Z,72.33
2018-02-16T23:19:53.231Z,72.22
2018-02-16T23:22:21.509Z,72.12
2018-02-16T23:24:49.865Z,71.98
2018-02-16T23:27:18.165Z,72.08
2018-02-16T23:29:46.444Z,72.58
2018-02-16T23:32:14.738Z,72.95
2018-02-16T23:34:43.035Z,72.62
2018-02-16T23:37:11.338Z,74.00
2018-02-16T23:39:39.647Z,74.29
2018-02-16T23:42:07.909Z,74.25
2018-02-16T23:44:36.131Z,74.24
2018-02-16T23:47:04.511Z,73.59
2018-02-16T23:49:33.198Z,73.24
2018-02-16T23:52:01.488Z,72.80
2018-02-16T23:54:29.745Z,72.59
2018-02-16T23:56:58.292Z,72.63
2018-02-16T23:59:26.564Z,72.26
